createdAt,value
2023-04-12T00:00:13.501Z,36.40
2023-04-12T00:02:44.824Z,36.37
2023-04-12T00:05:14.240Z,35.98
2023-04-12T00:07:43.090Z,35.96
2023-04-12T00:10:12.893Z,36.11
2023-04-12T00:12:41.653Z,35.93
2023-04-12T00:15:10.721Z,36.35
2023-04-12T00:17:38.706Z,36.31
2023-04-12T00:20:12.238Z,36.32
2023-04-12T00:22:41.589Z,35.98
2023-04-12T00:25:09.691Z,36.06
2023-04-12T00:27:39.221Z,36.08
2023-04-12T00:30:08.725Z,36.34
2023-04-12T00:32:36.727Z,36.04
2023-04-12T00:35:04.923Z,35.90
2023-04-12T00:37:33.004Z,36.27
2023-04-12T00:40:01.024Z,36.32
2023-04-12T00:42:28.966Z,35.90
2023-04-12T00:44:58.341Z,36.04
2023-04-12T00:47:26.488Z,36.11
2023-04-12T00:49:54.519Z,36.09
2023-04-12T00:52:22.520Z,36.14
2023-04-12T00:54:51.847Z,36.03
2023-04-12T00:57:19.877Z,35.88
2023-04-12T00:59:48.757Z,36.16
2023-04-12T01:02:55.058Z,35.78
2023-04-12T01:05:24.370Z,35.97
2023-04-12T01:07:56.345Z,36.10
2023-04-12T01:10:30.888Z,35.98
2023-04-12T01:13:05.550Z,36.17
2023-04-12T01:15:34.108Z,35.82
2023-04-12T01:18:05.854Z,35.94
2023-04-12T01:20:37.510Z,36.28
2023-04-12T01:23:31.226Z,36.27
2023-04-12T01:26:11.249Z,36.24
2023-04-12T01:28:43.460Z,35.98
2023-04-12T01:31:12.945Z,36.07
2023-04-12T01:33:41.102Z,36.02
2023-04-12T01:36:12.749Z,36.32
2023-04-12T01:38:41.122Z,36.19
2023-04-12T01:41:09.346Z,36.07
2023-04-12T01:43:43.765Z,35.79
2023-04-12T01:46:12.183Z,36.05
2023-04-12T01:48:40.256Z,36.37
2023-04-12T01:51:11.715Z,35.99
2023-04-12T01:53:44.893Z,36.00
2023-04-12T01:56:12.858Z,36.14
2023-04-12T01:58:42.557Z,36.17
2023-04-12T02:01:10.684Z,36.04
2023-04-12T02:03:38.795Z,36.10
2023-04-12T02:06:07.312Z,36.24
2023-04-12T02:08:35.423Z,35.86
2023-04-12T02:11:09.028Z,36.22
2023-04-12T02:13:38.291Z,36.05
2023-04-12T02:16:10.918Z,36.04
2023-04-12T02:18:41.613Z,36.10
2023-04-12T02:21:09.718Z,35.71
2023-04-12T02:23:37.743Z,35.95
2023-04-12T02:26:05.923Z,35.88
2023-04-12T02:28:34.707Z,35.88
2023-04-12T02:31:02.804Z,35.97
2023-04-12T02:33:32.232Z,35.89
2023-04-12T02:36:02.641Z,35.97
2023-04-12T02:38:31.003Z,35.85
2023-04-12T02:40:59.029Z,36.06
2023-04-12T02:43:26.970Z,35.84
2023-04-12T02:45:55.069Z,35.51
2023-04-12T02:48:22.973Z,35.74
2023-04-12T02:50:52.367Z,36.53
2023-04-12T02:53:20.756Z,35.85
2023-04-12T02:55:48.864Z,35.41
2023-04-12T02:58:17.601Z,36.00
2023-04-12T03:00:46.869Z,35.43
2023-04-12T03:03:14.960Z,35.75
2023-04-12T03:05:47.306Z,35.52
2023-04-12T03:08:16.732Z,35.35
2023-04-12T03:10:44.749Z,35.57
2023-04-12T03:13:12.658Z,35.16
2023-04-12T03:15:41.551Z,35.17
2023-04-12T03:18:09.557Z,35.47
2023-04-12T03:20:39.110Z,35.38
2023-04-12T03:23:07.105Z,35.01
2023-04-12T03:25:37.093Z,35.12
2023-04-12T03:28:05.388Z,34.80
2023-04-12T03:30:33.418Z,34.88
2023-04-12T03:33:01.450Z,35.12
2023-04-12T03:35:29.527Z,34.89
2023-04-12T03:37:57.550Z,34.85
2023-04-12T03:40:25.831Z,34.82
2023-04-12T03:42:55.194Z,34.55
2023-04-12T03:45:23.272Z,34.88
2023-04-12T03:47:51.267Z,34.93
2023-04-12T03:50:19.902Z,34.83
2023-04-12T03:52:47.904Z,34.77
2023-04-12T03:55:18.575Z,34.78
2023-04-12T03:57:46.532Z,34.82
2023-04-12T04:00:16.868Z,34.70
2023-04-12T04:02:44.962Z,34.49
2023-04-12T04:05:13.831Z,34.61
2023-04-12T04:07:41.916Z,34.65
2023-04-12T04:10:10.789Z,34.42
2023-04-12T04:12:38.808Z,34.24
2023-04-12T04:15:07.526Z,34.26
2023-04-12T04:17:36.902Z,34.46
2023-04-12T04:20:07.114Z,34.41
2023-04-12T04:22:35.118Z,34.54
2023-04-12T04:25:03.107Z,34.13
2023-04-12T04:27:34.247Z,34.28
2023-04-12T04:30:02.790Z,34.26
2023-04-12T04:32:31.691Z,34.28
2023-04-12T04:35:01.168Z,34.27
2023-04-12T04:37:29.513Z,34.16
2023-04-12T04:39:57.505Z,33.96
2023-04-12T04:42:25.469Z,34.43
2023-04-12T04:45:04.535Z,33.82
2023-04-12T04:47:32.603Z,34.07
2023-04-12T04:50:02.321Z,33.97
2023-04-12T04:52:30.358Z,34.18
2023-04-12T04:54:58.359Z,34.00
2023-04-12T04:57:26.803Z,34.17
2023-04-12T04:59:54.813Z,34.25
2023-04-12T05:02:24.241Z,34.15
2023-04-12T05:04:56.299Z,34.13
2023-04-12T05:07:26.243Z,33.84
2023-04-12T05:09:54.358Z,33.86
2023-04-12T05:12:22.603Z,33.97
2023-04-12T05:14:51.920Z,33.82
2023-04-12T05:17:20.209Z,33.94
2023-04-12T05:19:48.270Z,33.93
2023-04-12T05:22:20.318Z,33.74
2023-04-12T05:24:49.730Z,34.10
2023-04-12T05:27:17.669Z,33.68
2023-04-12T05:29:45.616Z,33.77
2023-04-12T05:32:13.564Z,33.80
2023-04-12T05:34:42.368Z,34.04
2023-04-12T05:37:10.311Z,33.80
2023-04-12T05:39:38.346Z,34.10
2023-04-12T05:42:07.829Z,33.77
2023-04-12T05:44:36.267Z,33.66
2023-04-12T05:47:04.450Z,33.48
2023-04-12T05:49:32.563Z,33.76
2023-04-12T05:52:00.575Z,33.77
2023-04-12T05:54:28.576Z,33.82
2023-04-12T05:56:57.172Z,33.52
2023-04-12T05:59:26.528Z,33.91
2023-04-12T06:01:54.555Z,33.75
2023-04-12T06:04:22.860Z,33.77
2023-04-12T06:06:51.374Z,33.74
2023-04-12T06:09:19.928Z,33.72
2023-04-12T06:11:48.063Z,34.00
2023-04-12T06:14:16.057Z,34.04
2023-04-12T06:16:45.384Z,33.94
2023-04-12T06:19:13.467Z,33.67
2023-04-12T06:21:41.470Z,33.96
2023-04-12T06:24:09.647Z,33.87
2023-04-12T06:26:40.195Z,33.67
2023-04-12T06:29:08.484Z,34.02
2023-04-12T06:31:36.776Z,33.76
2023-04-12T06:34:06.227Z,34.89
2023-04-12T06:36:34.198Z,34.48
2023-04-12T06:39:02.213Z,34.60
2023-04-12T06:41:30.865Z,34.49
2023-04-12T06:43:59.010Z,34.50
2023-04-12T06:46:27.576Z,34.74
2023-04-12T06:48:55.715Z,36.82
2023-04-12T06:51:25.108Z,36.18
2023-04-12T06:53:53.062Z,35.48
2023-04-12T06:56:21.213Z,35.31
2023-04-12T06:58:49.247Z,35.22
2023-04-12T07:01:17.864Z,35.73
2023-04-12T07:03:46.132Z,36.02
2023-04-12T07:06:24.333Z,35.44
2023-04-12T07:08:55.092Z,35.41
2023-04-12T07:11:23.933Z,34.82
2023-04-12T07:13:52.074Z,35.03
2023-04-12T07:16:20.068Z,34.91
2023-04-12T07:19:44.573Z,34.41
2023-04-12T07:22:14.066Z,34.56
2023-04-12T07:24:43.537Z,34.56
2023-04-12T07:27:11.870Z,34.10
2023-04-12T07:29:39.809Z,34.33
2023-04-12T07:32:08.221Z,34.12
2023-04-12T07:34:36.786Z,34.11
2023-04-12T07:37:05.186Z,34.09
2023-04-12T07:39:34.902Z,34.30
2023-04-12T07:42:04.262Z,34.24
2023-04-12T07:44:32.426Z,33.98
2023-04-12T07:47:00.366Z,33.77
2023-04-12T08:00:52.745Z,33.45
2023-04-12T08:03:20.900Z,33.78
2023-04-12T08:17:34.076Z,33.88
2023-04-12T08:20:11.888Z,33.96
2023-04-12T08:22:40.062Z,34.18
2023-04-12T08:25:09.137Z,33.97
2023-04-12T08:27:37.099Z,33.83
2023-04-12T08:30:06.050Z,34.11
2023-04-12T08:32:35.480Z,33.83
2023-04-12T08:35:03.598Z,33.85
2023-04-12T08:37:31.812Z,33.98
2023-04-12T08:40:00.904Z,33.91
2023-04-12T08:42:28.895Z,33.83
2023-04-12T08:44:56.843Z,33.45
2023-04-12T08:47:24.826Z,33.51
2023-04-12T08:57:33.553Z,33.27
2023-04-12T09:00:01.973Z,33.57
2023-04-12T09:02:30.108Z,33.34
2023-04-12T09:04:58.568Z,33.20
2023-04-12T09:07:28.839Z,33.18
2023-04-12T09:09:58.108Z,33.63
2023-04-12T09:12:26.161Z,33.29
2023-04-12T09:15:09.671Z,32.86
2023-04-12T09:17:39.048Z,33.33
2023-04-12T09:20:26.049Z,33.19
2023-04-12T09:22:55.612Z,32.98
2023-04-12T09:25:40.528Z,33.17
2023-04-12T09:28:23.083Z,33.18
2023-04-12T09:30:53.104Z,33.36
2023-04-12T09:33:21.524Z,33.49
2023-04-12T09:39:34.232Z,33.46
2023-04-12T09:42:10.504Z,33.42
2023-04-12T09:44:43.640Z,33.39
2023-04-12T09:47:13.069Z,33.36
2023-04-12T09:49:41.544Z,33.61
2023-04-12T09:52:10.830Z,33.59
2023-04-12T09:54:40.151Z,33.60
2023-04-12T09:57:08.492Z,33.37
2023-04-12T09:59:38.441Z,33.10
2023-04-12T10:02:08.788Z,32.90
2023-04-12T10:04:40.577Z,33.00
2023-04-12T10:07:08.645Z,32.83
2023-04-12T10:09:39.062Z,32.86
2023-04-12T10:12:07.215Z,32.94
2023-04-12T10:14:35.658Z,32.79
2023-04-12T10:17:04.652Z,32.70
2023-04-12T10:19:33.701Z,32.68
2023-04-12T10:22:03.166Z,32.82
2023-04-12T10:24:32.151Z,32.52
2023-04-12T10:27:03.052Z,32.57
2023-04-12T10:29:32.146Z,32.88
2023-04-12T10:32:19.352Z,32.86
2023-04-12T10:34:51.472Z,32.40
2023-04-12T10:37:21.047Z,32.74
2023-04-12T10:39:53.557Z,32.72
2023-04-12T10:42:25.922Z,32.67
2023-04-12T10:44:54.916Z,32.51
2023-04-12T10:48:01.610Z,32.49
2023-04-12T10:50:30.299Z,32.12
2023-04-12T10:53:28.062Z,32.05
2023-04-12T10:55:56.018Z,32.49
2023-04-12T10:58:59.002Z,32.12
2023-04-12T11:01:27.600Z,31.94
2023-04-12T11:04:16.050Z,31.87
2023-04-12T11:06:48.595Z,32.21
2023-04-12T11:09:25.363Z,31.75
2023-04-12T11:11:54.014Z,32.18
2023-04-12T11:14:30.866Z,32.02
2023-04-12T11:17:21.802Z,31.78
2023-04-12T11:20:00.404Z,32.01
2023-04-12T11:22:30.160Z,32.04
2023-04-12T11:25:00.040Z,31.90
2023-04-12T11:27:28.533Z,31.72
2023-04-12T11:29:57.109Z,31.87
2023-04-12T11:32:26.561Z,32.18
2023-04-12T11:34:55.480Z,31.79
2023-04-12T11:37:23.462Z,31.91
2023-04-12T11:39:53.075Z,32.13
2023-04-12T11:42:24.705Z,31.78
2023-04-12T11:44:58.936Z,31.83
2023-04-12T11:47:30.061Z,32.20
2023-04-12T11:49:58.921Z,31.46
2023-04-12T11:52:30.118Z,31.71
2023-04-12T11:54:58.989Z,32.17
2023-04-12T11:57:29.200Z,31.84
2023-04-12T11:59:58.921Z,31.72
2023-04-12T12:02:30.380Z,31.66
2023-04-12T12:05:01.461Z,31.94
2023-04-12T12:07:29.819Z,32.41
2023-04-12T12:09:57.898Z,32.39
2023-04-12T12:12:26.199Z,32.64
2023-04-12T12:14:55.572Z,33.09
2023-04-12T12:17:23.637Z,33.16
2023-04-12T12:20:01.533Z,33.81
2023-04-12T12:22:29.474Z,36.51
2023-04-12T12:24:58.894Z,35.78
2023-04-12T12:27:35.546Z,38.59
2023-04-12T12:30:05.570Z,39.62
2023-04-12T12:32:34.911Z,37.59
2023-04-12T12:38:43.792Z,39.42
2023-04-12T12:41:18.632Z,39.67
2023-04-12T12:43:47.337Z,41.17
2023-04-12T12:46:17.641Z,39.37
2023-04-12T12:48:45.723Z,40.47
2023-04-12T12:51:13.997Z,41.75
2023-04-12T12:53:42.124Z,40.40
2023-04-12T12:56:11.202Z,39.89
2023-04-12T12:58:41.049Z,38.48
2023-04-12T13:01:09.289Z,39.37
2023-04-12T13:03:38.978Z,40.18
2023-04-12T13:06:10.281Z,41.20
2023-04-12T13:08:38.199Z,38.65
2023-04-12T13:11:06.682Z,41.09
2023-04-12T13:13:34.678Z,41.62
2023-04-12T13:16:02.632Z,42.45
2023-04-12T13:18:30.749Z,42.39
2023-04-12T13:21:37.274Z,43.19
2023-04-12T13:24:05.179Z,42.27
2023-04-12T13:26:35.860Z,42.34
2023-04-12T13:29:03.826Z,41.90
2023-04-12T13:31:31.976Z,42.27
2023-04-12T13:34:00.320Z,42.01
2023-04-12T13:36:28.541Z,43.10
2023-04-12T13:38:58.079Z,43.27
2023-04-12T13:41:26.476Z,44.40
2023-04-12T13:43:54.470Z,41.73
2023-04-12T13:46:22.520Z,42.31
2023-04-12T13:48:51.070Z,42.54
2023-04-12T13:51:19.297Z,43.61
2023-04-12T13:53:47.611Z,43.45
2023-04-12T13:56:17.144Z,44.06
2023-04-12T13:58:45.163Z,43.28
2023-04-12T14:01:13.626Z,44.94
2023-04-12T14:03:41.771Z,43.48
2023-04-12T14:07:11.067Z,43.68
2023-04-12T14:09:38.973Z,42.29
2023-04-12T14:12:08.323Z,42.23
2023-04-12T14:14:36.229Z,41.71
2023-04-12T14:17:04.166Z,41.49
2023-04-12T14:19:32.297Z,42.34
2023-04-12T14:22:00.386Z,41.60
2023-04-12T14:24:28.295Z,41.04
2023-04-12T14:26:57.193Z,41.87
2023-04-12T14:29:27.198Z,43.13
2023-04-12T14:31:55.238Z,41.17
2023-04-12T14:34:23.205Z,41.81
2023-04-12T14:37:30.005Z,42.19
2023-04-12T14:39:57.999Z,41.56
2023-04-12T14:42:26.106Z,42.90
2023-04-12T14:44:55.462Z,42.83
2023-04-12T14:47:23.466Z,41.54
2023-04-12T14:49:51.390Z,41.62
2023-04-12T14:53:16.443Z,40.58
2023-04-12T14:55:45.613Z,40.00
2023-04-12T14:58:13.562Z,40.69
2023-04-12T15:00:42.814Z,39.65
2023-04-12T15:03:11.026Z,39.76
2023-04-12T15:13:25.007Z,38.59
2023-04-12T15:15:55.488Z,40.49
2023-04-12T15:18:23.500Z,38.01
2023-04-12T15:25:33.038Z,36.50
2023-04-12T15:28:01.506Z,37.33
2023-04-12T15:30:29.747Z,38.08
2023-04-12T15:32:59.730Z,37.36
2023-04-12T15:35:27.801Z,38.22
2023-04-12T15:42:15.960Z,38.45
2023-04-12T15:44:45.454Z,38.90
2023-04-12T15:47:13.572Z,38.63
2023-04-12T15:49:42.924Z,38.63
2023-04-12T15:52:49.743Z,38.54
2023-04-12T15:55:20.268Z,39.08
2023-04-12T15:57:48.613Z,39.53
2023-04-12T16:00:24.700Z,39.31
2023-04-12T16:02:56.440Z,38.63
2023-04-12T16:05:26.690Z,38.56
2023-04-12T16:16:29.126Z,37.46
2023-04-12T16:18:59.274Z,37.68
2023-04-12T16:53:14.098Z,38.63
2023-04-12T16:55:44.505Z,38.71
2023-04-12T16:58:12.544Z,38.21
2023-04-12T17:00:42.877Z,36.91
2023-04-12T17:03:11.530Z,38.89
2023-04-12T17:05:40.092Z,37.15
2023-04-12T17:12:00.591Z,37.35
2023-04-12T17:14:29.383Z,37.34
2023-04-12T17:16:57.395Z,37.72
2023-04-12T17:19:25.384Z,37.14
2023-04-12T17:22:30.828Z,36.54
2023-04-12T17:24:58.800Z,36.34
2023-04-12T17:27:28.092Z,37.63
2023-04-12T17:29:56.044Z,37.28
2023-04-12T17:32:24.058Z,36.89
2023-04-12T17:34:54.806Z,37.00
2023-04-12T17:38:12.793Z,38.07
2023-04-12T17:40:40.922Z,37.61
2023-04-12T17:43:10.523Z,37.00
2023-04-12T17:45:38.539Z,37.18
2023-04-12T17:48:07.071Z,37.93
2023-04-12T17:50:35.227Z,38.81
2023-04-12T17:53:03.655Z,38.00
2023-04-12T17:55:31.801Z,37.64
2023-04-12T17:57:59.696Z,37.48
2023-04-12T18:00:29.128Z,36.85
2023-04-12T18:02:57.751Z,37.38
2023-04-12T18:05:26.019Z,37.19
2023-04-12T18:08:49.854Z,37.39
2023-04-12T18:11:18.363Z,36.63
2023-04-12T18:13:46.734Z,37.14
2023-04-12T18:16:16.194Z,36.56
2023-04-12T18:18:44.322Z,36.48
2023-04-12T18:21:12.386Z,36.45
2023-04-12T18:23:40.485Z,36.74
2023-04-12T18:26:08.406Z,36.74
2023-04-12T18:28:37.490Z,35.95
2023-04-12T18:31:06.838Z,36.93
2023-04-12T18:33:36.263Z,37.16
2023-04-12T18:36:04.658Z,36.70
2023-04-12T18:38:33.697Z,36.89
2023-04-12T18:41:01.649Z,37.11
2023-04-12T18:43:29.644Z,36.43
2023-04-12T18:45:57.573Z,36.33
2023-04-12T18:48:27.246Z,36.61
2023-04-12T18:50:57.534Z,35.67
2023-04-12T18:53:25.494Z,34.91
2023-04-12T18:55:53.655Z,35.77
2023-04-12T18:58:21.673Z,36.10
2023-04-12T19:00:50.745Z,35.13
2023-04-12T19:03:18.905Z,35.70
2023-04-12T19:05:46.972Z,35.75
2023-04-12T19:08:16.392Z,35.23
2023-04-12T19:10:44.389Z,35.78
2023-04-12T19:13:12.264Z,36.05
2023-04-12T19:15:40.324Z,35.87
2023-04-12T19:18:08.367Z,35.70
2023-04-12T19:20:36.445Z,35.99
2023-04-12T19:23:24.507Z,35.13
2023-04-12T19:25:53.046Z,35.82
2023-04-12T19:28:21.167Z,35.30
2023-04-12T19:30:49.126Z,35.12
2023-04-12T19:33:17.191Z,35.29
2023-04-12T19:35:45.125Z,35.17
2023-04-12T19:38:13.598Z,35.24
2023-04-12T19:40:43.147Z,35.30
2023-04-12T19:43:14.078Z,34.99
2023-04-12T19:45:42.390Z,35.42
2023-04-12T19:48:10.472Z,35.40
2023-04-12T19:50:38.574Z,35.45
2023-04-12T19:53:06.565Z,35.21
2023-04-12T19:55:34.579Z,35.85
2023-04-12T19:58:03.981Z,35.51
2023-04-12T20:00:32.152Z,35.25
2023-04-12T20:03:00.704Z,35.32
2023-04-12T20:05:28.972Z,35.61
2023-04-12T20:07:56.993Z,35.44
2023-04-12T20:10:25.228Z,35.13
2023-04-12T20:12:53.173Z,35.10
2023-04-12T20:15:22.521Z,35.08
2023-04-12T20:17:51.996Z,35.10
2023-04-12T20:20:20.510Z,35.06
2023-04-12T20:22:51.974Z,34.85
2023-04-12T20:25:21.014Z,35.13
2023-04-12T20:27:52.156Z,34.50
2023-04-12T20:30:20.990Z,34.71
2023-04-12T20:32:54.176Z,34.64
2023-04-12T20:35:23.566Z,34.67
2023-04-12T20:38:30.716Z,34.44
2023-04-12T20:40:58.798Z,34.74
2023-04-12T20:43:27.159Z,34.98
2023-04-12T20:45:55.292Z,34.63
2023-04-12T20:48:24.954Z,34.62
2023-04-12T20:50:52.936Z,34.66
2023-04-12T20:53:21.026Z,34.53
2023-04-12T20:55:48.925Z,34.41
2023-04-12T20:58:17.821Z,34.55
2023-04-12T21:00:46.868Z,34.50
2023-04-12T21:03:14.953Z,34.42
2023-04-12T21:05:46.137Z,34.50
2023-04-12T21:08:14.203Z,34.72
2023-04-12T21:10:42.786Z,34.70
2023-04-12T21:13:11.995Z,34.80
2023-04-12T21:15:40.338Z,34.86
2023-04-12T21:18:08.409Z,34.66
2023-04-12T21:20:36.441Z,34.58
2023-04-12T21:23:07.436Z,34.43
2023-04-12T21:25:35.502Z,34.67
2023-04-12T21:28:03.623Z,34.77
2023-04-12T21:30:31.671Z,34.67
2023-04-12T21:33:02.331Z,34.43
2023-04-12T21:35:31.230Z,34.45
2023-04-12T21:37:59.216Z,34.39
2023-04-12T21:40:28.655Z,34.86
2023-04-12T21:42:57.159Z,34.82
2023-04-12T21:45:25.576Z,34.66
2023-04-12T21:47:54.349Z,34.39
2023-04-12T21:50:22.495Z,34.38
2023-04-12T21:52:50.427Z,34.87
2023-04-12T21:55:18.686Z,34.55
2023-04-12T21:57:48.122Z,34.76
2023-04-12T22:00:18.371Z,34.65
2023-04-12T22:02:46.548Z,34.47
2023-04-12T22:05:14.657Z,34.40
2023-04-12T22:07:51.794Z,34.09
2023-04-12T22:10:20.729Z,34.21
2023-04-12T22:12:51.243Z,34.49
2023-04-12T22:15:19.684Z,34.34
2023-04-12T22:17:47.814Z,34.47
2023-04-12T22:20:15.842Z,34.34
2023-04-12T22:22:57.262Z,34.45
2023-04-12T22:25:27.070Z,34.23
2023-04-12T22:27:58.037Z,34.18
2023-04-12T22:30:26.085Z,34.26
2023-04-12T22:32:54.291Z,34.16
2023-04-12T22:35:25.124Z,34.34
2023-04-12T22:38:20.853Z,34.13
2023-04-12T22:40:48.933Z,34.41
2023-04-12T22:43:22.335Z,33.95
2023-04-12T22:45:54.128Z,34.20
2023-04-12T22:48:25.135Z,34.21
2023-04-12T22:50:54.535Z,34.33
2023-04-12T22:53:22.541Z,34.18
2023-04-12T22:55:50.588Z,34.08
2023-04-12T22:58:19.898Z,33.83
2023-04-12T23:00:49.290Z,34.17
2023-04-12T23:03:17.822Z,33.80
2023-04-12T23:05:45.938Z,33.99
2023-04-12T23:08:14.486Z,34.04
2023-04-12T23:10:43.213Z,34.15
2023-04-12T23:13:11.821Z,33.81
2023-04-12T23:15:41.669Z,34.35
2023-04-12T23:18:10.778Z,34.04
2023-04-12T23:20:39.061Z,33.94
2023-04-12T23:23:06.981Z,34.37
2023-04-12T23:25:41.900Z,33.85
2023-04-12T23:28:13.455Z,33.80
2023-04-12T23:30:44.848Z,33.91
2023-04-12T23:33:13.076Z,33.96
2023-04-12T23:35:41.724Z,34.07
2023-04-12T23:38:32.786Z,33.67
2023-04-12T23:41:02.237Z,34.00
2023-04-12T23:43:30.467Z,33.59
2023-04-12T23:46:04.446Z,34.00
2023-04-12T23:48:32.863Z,33.82
2023-04-12T23:51:01.137Z,33.95
2023-04-12T23:53:35.280Z,33.97
2023-04-12T23:56:03.271Z,33.69
2023-04-12T23:58:31.223Z,33.72
